Route Details

Aircraft Information
Group: North America Fleet
Types: B738, B752, B762, B763
Route Data
Distance: 1192nm
Duration: 3h 10m
Origin METAR: KBOI 080053Z 15009KT 10SM OVC075 07/M02 A3027 RMK AO2 SLP264 T00721022
Dest. METAR: KRFD 080054Z 27008KT 10SM CLR 02/M04 A3017 RMK AO2 SLP224 T00171039
Freight Data
(for Feb 8, 2023)
Load Factor:
29%
Manifested Cargo: 24,463lbs
Financial History
Total Freight: 48,991lbs
Average Load: 0lbs/flt
Fuel Used: 14,802lbs
Avg. Fuel Used: 0lbs/flt
Fuel Expense: $6,365
Avg. Fuel Expense: $0
Avg. Fuel Cost: $0/lbs
Total Gross Income: $124,927
Pilot Pay: $269
Total Expenses: $24,722
Total Revenue: $92,741
Average Revenue: $0

Capitol Logistics 461




KBOI
Boise Air Terminal/Gowen field
Boise, Idaho
KRFD
Chicago/Rockford International Airport
Rockford, Illinois

Activity Log

Date Flight Route Aircraft Duration
01/30/2023 CPX461 BOI3 BOI J163 PIH DCT RIW DCT DDY J158 RAP J82 FSD J16 MCW J90 LARVA DCT COTON DCT B738 2h 50m